Latest Coastal Weather Observations for Parndana

IDS60701

Issued at 8:41 pm CDT Saturday 31 January 2015 (issued every 10 minutes, with the page automatically refreshed every 10 minutes)

About coastal observations | Map of coastal stations | Coastal observations for SA | Marine services | Other Formats
Station Details ID: 022843 Name: PARNDANA CFS AWS Lat: -35.79 Lon: 137.25 Height: 165.0 m
Data from the previous 72 hours. | See also: Recent months at Parndana
Date/Time
CDT
Temp

°C
Wind Pressure Rain
since 9am
mm
Weather Cloud Vis
km
Sea
Height
m
Swell
Dir
 
Speed
knots
Gust
knots
hPa Trend Height
m
Period
s
Dir
31/08:30pm 15.2 SSE 15 20 - - 0.0 - - - - - - -
31/08:00pm 15.6 SSE 15 20 - - 0.0 - - - - - - -
31/07:30pm 15.9 SSE 17 24 - - 0.0 - - - - - - -
31/07:00pm 15.9 SSE 17 22 - - 0.0 - - - - - - -
31/06:30pm 16.8 SSE 15 23 - - 0.0 - - - - - - -
31/06:00pm 17.3 SSE 17 21 - - 0.0 - - - - - - -
31/05:30pm 17.7 SSE 17 22 - - 0.0 - - - - - - -
31/05:00pm 17.1 SSE 15 20 - - 0.0 - - - - - - -
31/04:30pm 17.6 SSE 14 18 - - 0.0 - - - - - - -
31/04:00pm 18.9 SSE 14 21 - - 0.0 - - - - - - -
31/03:30pm 17.8 SSE 17 21 - - 0.0 - - - - - - -
31/03:00pm 17.4 SSE 15 21 - - 0.0 - - - - - - -
31/02:30pm 18.6 SSE 13 19 - - 0.0 - - - - - - -
31/02:00pm 17.6 SSE 16 23 - - 0.0 - - - - - - -
31/01:30pm 18.1 SSE 16 21 - - 0.0 - - - - - - -
31/01:00pm 18.9 SSE 15 20 - - 0.0 - - - - - - -
31/12:30pm 20.5 SE 15 24 - - 0.0 - - - - - - -
31/12:00pm 18.5 SSE 15 21 - - 0.0 - - - - - - -
31/11:30am 18.3 SE 14 19 - - 0.0 - - - - - - -
31/11:00am 17.4 SSE 15 20 - - 0.0 - - - - - - -
31/10:30am 16.9 SE 15 20 - - 0.0 - - - - - - -
31/10:00am 17.4 SSE 16 21 - - 0.0 - - - - - - -
31/09:30am 16.5 SE 11 17 - - 0.0 - - - - - - -
31/09:00am 15.0 SSE 11 16 - - 0.0 - - - - - - -
31/08:30am 15.8 SSE 14 19 - - 0.0 - - - - - - -
31/08:00am 15.8 SE 11 15 - - 0.0 - - - - - - -
31/07:30am 15.2 SE 11 15 - - 0.0 - - - - - - -
31/07:00am 14.6 SE 10 14 - - 0.0 - - - - - - -
31/06:30am 14.7 SE 9 13 - - 0.0 - - - - - - -
31/06:00am 14.4 SE 9 12 - - 0.0 - - - - - - -
31/05:30am 14.4 SE 11 16 - - 0.0 - - - - - - -
31/05:00am 14.2 SE 10 13 - - 0.0 - - - - - - -
31/04:30am 14.1 SSE 9 11 - - 0.0 - - - - - - -
31/04:00am 13.5 SE 11 15 - - 0.0 - - - - - - -
31/03:30am 14.0 SE 12 17 - - 0.0 - - - - - - -
31/03:00am 13.8 SE 12 16 - - 0.0 - - - - - - -
31/02:30am 13.8 SE 13 17 - - 0.0 - - - - - - -
31/02:00am 13.4 SSE 11 15 - - 0.0 - - - - - - -
31/01:30am 13.4 SSE 12 16 - - 0.0 - - - - - - -
31/01:00am 13.8 SE 13 18 - - 0.0 - - - - - - -
31/12:30am 13.9 SSE 14 19 - - 0.0 - - - - - - -
31/12:00am 14.4 SSE 15 20 - - 0.0 - - - - - - -
 
Date/Time
CDT
Temp

°C
Wind Pressure Rain
since 9am
mm
Weather Cloud Vis
km
Sea
Height
m
Swell
Dir
 
Speed
knots
Gust
knots
hPa Trend Height
m
Period
s
Dir
30/11:30pm 14.4 SSE 14 20 - - 0.0 - - - - - - -
30/11:00pm 14.4 SSE 16 20 - - 0.0 - - - - - - -
30/10:30pm 14.5 SE 13 18 - - 0.0 - - - - - - -
30/10:00pm 14.8 SSE 14 20 - - 0.0 - - - - - - -
30/09:30pm 14.4 SSE 14 20 - - 0.0 - - - - - - -
30/09:00pm 15.2 SSE 17 23 - - 0.0 - - - - - - -
30/08:30pm 15.2 SSE 18 23 - - 0.0 - - - - - - -
30/08:00pm 15.6 SSE 19 24 - - 0.0 - - - - - - -
30/07:30pm 16.3 SSE 17 24 - - 0.0 - - - - - - -
30/07:00pm 17.1 SSE 18 25 - - 0.0 - - - - - - -
30/06:30pm 18.0 SSE 17 24 - - 0.0 - - - - - - -
30/06:00pm 18.7 SSE 16 23 - - 0.0 - - - - - - -
30/05:30pm 18.5 SSE 18 25 - - 0.0 - - - - - - -
30/05:00pm 19.5 SSE 16 23 - - 0.0 - - - - - - -
30/04:30pm 19.6 SSE 16 23 - - 0.0 - - - - - - -
30/04:00pm 21.0 SE 16 22 - - 0.0 - - - - - - -
30/03:30pm 20.1 SSE 16 22 - - 0.0 - - - - - - -
30/03:00pm 20.7 SE 16 25 - - 0.0 - - - - - - -
30/02:30pm 21.4 SE 15 23 - - 0.0 - - - - - - -
30/02:00pm 20.6 SE 16 24 - - 0.0 - - - - - - -
30/01:30pm 20.5 SE 14 20 - - 0.0 - - - - - - -
30/01:00pm 20.2 SE 14 23 - - 0.0 - - - - - - -
30/12:30pm 20.1 SE 14 19 - - 0.0 - - - - - - -
30/12:00pm 19.6 SE 15 20 - - 0.0 - - - - - - -
30/11:30am 19.2 ESE 14 18 - - 0.0 - - - - - - -
30/11:00am 18.6 SE 15 20 - - 0.0 - - - - - - -
30/10:30am 17.9 SE 16 19 - - 0.0 - - - - - - -
30/10:00am 17.3 SE 15 20 - - 0.0 - - - - - - -
30/09:30am 16.9 ESE 15 20 - - 0.0 - - - - - - -
30/09:00am 16.5 SE 16 21 - - 0.0 - - - - - - -
30/08:30am 15.5 SE 14 22 - - 0.0 - - - - - - -
30/08:00am 15.0 SE 12 17 - - 0.0 - - - - - - -
30/07:30am 14.4 SE 11 16 - - 0.0 - - - - - - -
30/07:00am 13.8 SE 9 13 - - 0.0 - - - - - - -
30/06:30am 13.4 SE 9 11 - - 0.0 - - - - - - -
30/06:00am 12.8 SE 8 10 - - 0.0 - - - - - - -
30/05:30am 13.3 SE 8 12 - - 0.0 - - - - - - -
30/05:00am 13.3 SE 9 12 - - 0.0 - - - - - - -
30/04:30am 12.6 SE 8 11 - - 0.0 - - - - - - -
30/04:00am 11.9 SSE 8 10 - - 0.0 - - - - - - -
30/03:30am 12.0 SSE 7 8 - - 0.0 - - - - - - -
30/03:00am 12.4 SSE 6 8 - - 0.0 - - - - - - -
30/02:30am 12.4 SSE 7 9 - - 0.0 - - - - - - -
30/02:00am 12.5 SSE 8 10 - - 0.0 - - - - - - -
30/01:30am 13.0 SSE 6 8 - - 0.0 - - - - - - -
30/01:00am 13.3 SSE 7 9 - - 0.0 - - - - - - -
30/12:30am 13.5 SSE 8 10 - - 0.0 - - - - - - -
30/12:00am 13.7 SSE 9 11 - - 0.0 - - - - - - -
 
Date/Time
CDT
Temp

°C
Wind Pressure Rain
since 9am
mm
Weather Cloud Vis
km
Sea
Height
m
Swell
Dir
 
Speed
knots
Gust
knots
hPa Trend Height
m
Period
s
Dir
29/11:30pm 13.7 SSE 9 12 - - 0.0 - - - - - - -
29/11:00pm 13.9 SSE 12 15 - - 0.0 - - - - - - -
29/10:30pm 13.8 SSE 9 11 - - 0.0 - - - - - - -
29/10:00pm 14.1 SSE 9 11 - - 0.0 - - - - - - -
29/09:30pm 14.6 SSE 10 13 - - 0.0 - - - - - - -
29/09:00pm 15.1 SSE 11 16 - - 0.0 - - - - - - -
29/08:30pm 16.0 SSE 14 18 - - 0.0 - - - - - - -
29/08:00pm 17.4 SSE 15 19 - - 0.0 - - - - - - -
29/07:30pm 18.9 SSE 12 17 - - 0.0 - - - - - - -
29/07:00pm 19.9 SSE 14 17 - - 0.0 - - - - - - -
29/06:30pm 20.7 SE 14 19 - - 0.0 - - - - - - -
29/06:00pm 21.2 SE 14 19 - - 0.0 - - - - - - -
29/05:30pm 21.4 SE 14 19 - - 0.0 - - - - - - -
29/05:00pm 22.3 SE 15 21 - - 0.0 - - - - - - -
29/04:30pm 23.3 SE 13 20 - - 0.0 - - - - - - -
29/04:00pm 23.6 ESE 13 21 - - 0.0 - - - - - - -
29/03:30pm 22.9 ESE 14 22 - - 0.0 - - - - - - -
29/03:00pm 23.7 ESE 13 18 - - 0.0 - - - - - - -
29/02:30pm 23.3 SE 14 21 - - 0.0 - - - - - - -
29/02:00pm 23.4 ESE 13 21 - - 0.0 - - - - - - -
29/01:30pm 22.8 ESE 14 19 - - 0.0 - - - - - - -
29/01:00pm 22.4 ESE 13 20 - - 0.0 - - - - - - -
29/12:30pm 22.4 E 12 19 - - 0.0 - - - - - - -
29/12:00pm 21.8 ESE 13 19 - - 0.0 - - - - - - -
29/11:30am 20.9 E 13 19 - - 0.0 - - - - - - -
29/11:00am 20.6 ESE 14 18 - - 0.0 - - - - - - -
29/10:30am 20.1 ESE 14 21 - - 0.0 - - - - - - -
29/10:00am 19.3 ESE 14 18 - - 0.0 - - - - - - -
29/09:30am 18.6 ESE 15 19 - - 0.0 - - - - - - -
29/09:00am 18.6 ESE 13 19 - - 0.0 - - - - - - -
29/08:30am 17.2 ESE 16 22 - - 0.0 - - - - - - -
29/08:00am 16.3 ESE 12 16 - - 0.0 - - - - - - -
29/07:30am 14.8 SE 10 14 - - 0.0 - - - - - - -
29/07:00am 14.0 SE 10 13 - - 0.0 - - - - - - -
29/06:30am 13.4 SE 9 11 - - 0.0 - - - - - - -
29/06:00am 13.1 SE 9 11 - - 0.0 - - - - - - -
29/05:30am 12.9 SSE 8 10 - - 0.0 - - - - - - -
29/05:00am 13.1 SSE 10 11 - - 0.0 - - - - - - -
29/04:30am 13.7 SSE 10 12 - - 0.0 - - - - - - -
29/04:00am 14.1 SE 9 13 - - 0.0 - - - - - - -
29/03:30am 14.2 SSE 11 13 - - 0.0 - - - - - - -
29/03:00am 14.8 SSE 10 13 - - 0.0 - - - - - - -
29/02:30am 15.4 SSE 11 15 - - 0.0 - - - - - - -
29/02:00am 15.8 SE 10 14 - - 0.0 - - - - - - -
29/01:30am 15.8 SE 9 13 - - 0.0 - - - - - - -
29/01:00am 15.8 SSE 16 22 - - 0.0 - - - - - - -
29/12:30am 16.1 SE 13 16 - - 0.0 - - - - - - -
29/12:00am 16.0 SE 10 14 - - 0.0 - - - - - - -
 
Date/Time
CDT
Temp

°C
Wind Pressure Rain
since 9am
mm
Weather Cloud Vis
km
Sea
Height
m
Swell
Dir
 
Speed
knots
Gust
knots
hPa Trend Height
m
Period
s
Dir
28/11:30pm 15.9 SE 14 20 - - 0.0 - - - - - - -
28/11:00pm 15.9 SE 16 22 - - 0.0 - - - - - - -
28/10:30pm 15.8 SE 16 21 - - 0.0 - - - - - - -
28/10:00pm 15.8 SSE 16 22 - - 0.0 - - - - - - -
28/09:30pm 15.8 SSE 17 22 - - 0.0 - - - - - - -
28/09:00pm 15.8 SE 13 18 - - 0.0 - - - - - - -

Other Formats:

Comma delimited format used in spreadsheet applications
http://www.bom.gov.au/fwo/IDS60701/IDS60701.94807.axf

JavaScript Object Notation format (JSON) in row-major order
http://www.bom.gov.au/fwo/IDS60701/IDS60701.94807.json